createdAt,value
2023-06-13T00:01:10.558Z,5.20
2023-06-13T00:03:40.735Z,5.55
2023-06-13T00:06:14.407Z,5.50
2023-06-13T00:08:42.629Z,5.80
2023-06-13T00:11:10.666Z,5.25
2023-06-13T00:13:40.651Z,5.55
2023-06-13T00:16:10.263Z,5.50
2023-06-13T00:18:39.011Z,5.20
2023-06-13T00:21:07.340Z,5.90
2023-06-13T00:23:35.340Z,5.18
2023-06-13T00:26:03.295Z,5.75
2023-06-13T00:28:31.292Z,5.05
2023-06-13T00:30:59.312Z,5.43
2023-06-13T00:33:32.385Z,5.25
2023-06-13T00:36:00.425Z,5.32
2023-06-13T00:38:30.300Z,5.32
2023-06-13T00:41:00.270Z,5.20
2023-06-13T00:43:30.925Z,5.30
2023-06-13T00:46:01.886Z,5.43
2023-06-13T00:48:31.654Z,5.43
2023-06-13T00:51:02.558Z,5.30
2023-06-13T00:53:32.405Z,5.07
2023-06-13T00:56:02.997Z,5.28
2023-06-13T00:58:31.067Z,5.68
2023-06-13T01:00:59.396Z,5.60
2023-06-13T01:03:27.593Z,4.93
2023-06-13T01:05:56.993Z,5.22
2023-06-13T01:08:27.247Z,5.15
2023-06-13T01:11:01.981Z,5.45
2023-06-13T01:13:35.966Z,5.80
2023-06-13T01:16:09.313Z,5.20
2023-06-13T01:18:43.262Z,5.43
2023-06-13T01:21:14.248Z,5.40
2023-06-13T01:23:50.909Z,5.38
2023-06-13T01:26:34.773Z,5.32
2023-06-13T01:29:05.674Z,5.10
2023-06-13T01:31:34.652Z,5.32
2023-06-13T01:34:03.415Z,5.53
2023-06-13T01:36:32.003Z,5.15
2023-06-13T01:39:00.323Z,5.03
2023-06-13T01:41:28.319Z,5.50
2023-06-13T01:43:56.317Z,5.95
2023-06-13T01:46:28.466Z,5.03
2023-06-13T01:51:37.688Z,4.70
2023-06-13T01:54:11.793Z,5.20
2023-06-13T01:56:43.395Z,4.78
2023-06-13T01:59:13.701Z,5.57
2023-06-13T02:01:44.463Z,5.10
2023-06-13T02:04:12.730Z,5.10
2023-06-13T02:06:43.556Z,4.97
2023-06-13T02:09:12.289Z,5.13
2023-06-13T02:11:40.264Z,5.10
2023-06-13T02:14:08.566Z,5.00
2023-06-13T02:16:40.285Z,5.15
2023-06-13T02:19:09.675Z,4.68
2023-06-13T02:21:37.674Z,5.00
2023-06-13T02:24:06.156Z,4.95
2023-06-13T02:26:35.876Z,4.47
2023-06-13T02:29:03.855Z,4.82
2023-06-13T02:31:36.837Z,5.28
2023-06-13T02:34:04.892Z,5.13
2023-06-13T02:36:34.388Z,4.88
2023-06-13T02:39:04.086Z,4.93
2023-06-13T02:41:34.786Z,4.70
2023-06-13T02:44:02.766Z,4.97
2023-06-13T02:46:30.731Z,4.90
2023-06-13T02:48:58.907Z,4.72
2023-06-13T02:51:27.768Z,4.75
2023-06-13T02:53:57.172Z,5.05
2023-06-13T02:56:25.146Z,4.70
2023-06-13T02:58:53.163Z,5.07
2023-06-13T03:01:21.239Z,5.13
2023-06-13T03:03:49.562Z,4.72
2023-06-13T03:06:18.724Z,5.07
2023-06-13T03:08:47.129Z,5.05
2023-06-13T03:11:16.805Z,4.43
2023-06-13T03:13:44.911Z,5.00
2023-06-13T03:16:13.363Z,4.97
2023-06-13T03:18:41.687Z,4.50
2023-06-13T03:21:09.707Z,4.72
2023-06-13T03:23:37.724Z,5.18
2023-06-13T03:26:07.441Z,5.00
2023-06-13T03:28:36.823Z,5.38
2023-06-13T03:31:05.366Z,5.25
2023-06-13T03:33:33.527Z,4.68
2023-06-13T03:36:01.887Z,4.70
2023-06-13T03:38:30.004Z,4.70
2023-06-13T03:41:01.060Z,5.07
2023-06-13T03:43:29.017Z,4.95
2023-06-13T03:45:58.863Z,4.65
2023-06-13T03:48:29.763Z,4.60
2023-06-13T03:50:57.927Z,4.93
2023-06-13T03:53:25.904Z,4.50
2023-06-13T03:55:54.047Z,5.38
2023-06-13T03:58:21.934Z,5.10
2023-06-13T04:00:50.199Z,4.95
2023-06-13T04:03:20.884Z,4.75
2023-06-13T04:05:49.201Z,4.93
2023-06-13T04:08:19.607Z,4.68
2023-06-13T04:10:47.703Z,4.88
2023-06-13T04:13:15.853Z,5.07
2023-06-13T04:15:43.991Z,5.00
2023-06-13T04:18:19.237Z,4.40
2023-06-13T04:20:49.150Z,4.75
2023-06-13T04:23:17.579Z,5.20
2023-06-13T04:25:45.981Z,4.60
2023-06-13T04:28:14.306Z,4.47
2023-06-13T04:30:42.994Z,4.50
2023-06-13T04:33:17.511Z,4.93
2023-06-13T04:35:47.878Z,4.78
2023-06-13T04:38:19.530Z,4.55
2023-06-13T04:40:47.604Z,4.60
2023-06-13T04:43:16.812Z,5.05
2023-06-13T04:45:47.827Z,5.13
2023-06-13T04:48:16.595Z,5.40
2023-06-13T04:50:45.436Z,4.65
2023-06-13T04:53:13.733Z,4.95
2023-06-13T04:55:43.471Z,4.85
2023-06-13T04:58:11.551Z,4.72
2023-06-13T05:00:39.581Z,5.10
2023-06-13T05:03:08.716Z,4.30
2023-06-13T05:05:36.982Z,4.70
2023-06-13T05:08:06.813Z,4.95
2023-06-13T05:10:37.290Z,4.55
2023-06-13T05:13:06.834Z,4.70
2023-06-13T05:15:34.898Z,4.55
2023-06-13T05:18:03.089Z,4.47
2023-06-13T05:20:31.405Z,4.65
2023-06-13T05:23:01.386Z,4.70
2023-06-13T05:25:29.777Z,4.75
2023-06-13T05:27:58.277Z,4.38
2023-06-13T05:30:27.863Z,4.97
2023-06-13T05:32:55.967Z,4.57
2023-06-13T05:35:24.446Z,4.95
2023-06-13T05:37:53.106Z,5.03
2023-06-13T05:40:21.317Z,4.88
2023-06-13T05:42:49.482Z,4.75
2023-06-13T05:45:17.525Z,4.88
2023-06-13T05:47:46.908Z,4.95
2023-06-13T05:50:15.999Z,4.85
2023-06-13T05:52:44.209Z,4.88
2023-06-13T05:55:14.321Z,4.60
2023-06-13T05:57:45.308Z,4.80
2023-06-13T06:00:17.340Z,4.63
2023-06-13T06:02:48.556Z,5.13
2023-06-13T06:05:17.332Z,4.70
2023-06-13T06:07:46.310Z,4.75
2023-06-13T06:10:15.371Z,4.57
2023-06-13T06:12:44.355Z,4.47
2023-06-13T06:15:12.566Z,5.25
2023-06-13T06:17:41.034Z,4.82
2023-06-13T06:20:11.592Z,4.90
2023-06-13T06:22:39.796Z,5.40
2023-06-13T06:25:14.510Z,4.57
2023-06-13T06:27:44.349Z,4.97
2023-06-13T06:30:13.525Z,4.72
2023-06-13T06:32:42.341Z,4.65
2023-06-13T06:35:12.740Z,5.60
2023-06-13T06:37:40.725Z,4.50
2023-06-13T06:40:13.202Z,4.88
2023-06-13T06:42:41.650Z,5.30
2023-06-13T06:45:11.965Z,4.65
2023-06-13T06:47:40.036Z,4.88
2023-06-13T06:50:08.358Z,4.40
2023-06-13T06:52:37.841Z,4.88
2023-06-13T06:55:09.015Z,5.03
2023-06-13T06:57:37.010Z,4.53
2023-06-13T07:00:09.007Z,4.82
2023-06-13T07:02:37.094Z,4.75
2023-06-13T07:05:05.580Z,5.00
2023-06-13T07:07:33.962Z,4.63
2023-06-13T07:10:03.459Z,4.70
2023-06-13T07:12:33.376Z,5.40
2023-06-13T07:15:01.532Z,5.00
2023-06-13T07:17:29.621Z,4.85
2023-06-13T07:19:57.724Z,4.80
2023-06-13T07:22:26.359Z,5.05
2023-06-13T07:24:54.337Z,4.75
2023-06-13T07:27:23.886Z,4.85
2023-06-13T07:29:51.856Z,5.00
2023-06-13T07:32:19.855Z,4.65
2023-06-13T07:35:04.068Z,4.72
2023-06-13T07:37:33.505Z,4.68
2023-06-13T07:40:01.587Z,4.70
2023-06-13T07:42:30.956Z,4.22
2023-06-13T07:44:59.033Z,4.88
2023-06-13T07:47:27.136Z,5.07
2023-06-13T07:49:55.181Z,4.55
2023-06-13T07:52:23.148Z,5.10
2023-06-13T07:54:51.129Z,4.90
2023-06-13T07:57:36.819Z,4.43
2023-06-13T08:00:14.050Z,4.60
2023-06-13T08:02:42.628Z,4.30
2023-06-13T08:05:11.010Z,5.43
2023-06-13T08:07:39.232Z,4.55
2023-06-13T08:10:10.586Z,5.47
2023-06-13T08:12:38.865Z,4.47
2023-06-13T08:15:10.264Z,5.18
2023-06-13T08:17:43.287Z,4.45
2023-06-13T08:20:14.960Z,5.03
2023-06-13T08:22:43.564Z,4.43
2023-06-13T08:25:11.691Z,4.13
2023-06-13T08:27:40.230Z,4.40
2023-06-13T08:30:10.465Z,4.93
2023-06-13T08:32:39.599Z,4.97
2023-06-13T08:35:08.109Z,4.35
2023-06-13T08:37:37.258Z,4.55
2023-06-13T08:40:11.079Z,4.45
2023-06-13T08:42:39.641Z,4.63
2023-06-13T08:45:10.184Z,4.30
2023-06-13T08:47:39.695Z,4.55
2023-06-13T08:50:09.047Z,4.20
2023-06-13T08:52:40.422Z,4.25
2023-06-13T08:55:37.510Z,4.55
2023-06-13T08:58:03.025Z,4.40
2023-06-13T09:00:37.683Z,4.50
2023-06-13T09:03:10.540Z,4.43
2023-06-13T09:05:39.576Z,4.38
2023-06-13T09:08:28.840Z,4.53
2023-06-13T09:10:57.619Z,4.30
2023-06-13T09:13:29.923Z,4.43
2023-06-13T09:15:59.586Z,4.25
2023-06-13T09:18:28.901Z,4.35
2023-06-13T09:20:57.002Z,4.63
2023-06-13T09:23:26.452Z,4.20
2023-06-13T09:25:57.562Z,4.63
2023-06-13T09:28:38.525Z,4.90
2023-06-13T09:31:08.781Z,4.13
2023-06-13T09:33:37.030Z,4.32
2023-06-13T09:36:07.636Z,4.30
2023-06-13T09:38:36.856Z,4.28
2023-06-13T09:41:06.286Z,4.30
2023-06-13T09:43:34.379Z,4.28
2023-06-13T09:46:03.504Z,4.57
2023-06-13T09:48:36.134Z,4.10
2023-06-13T09:51:05.808Z,4.68
2023-06-13T09:53:37.369Z,4.20
2023-06-13T09:56:09.516Z,4.07
2023-06-13T09:58:38.034Z,4.20
2023-06-13T10:01:06.142Z,4.07
2023-06-13T10:03:35.768Z,4.43
2023-06-13T10:06:03.842Z,4.72
2023-06-13T10:08:32.993Z,4.38
2023-06-13T10:11:05.139Z,4.10
2023-06-13T10:16:10.440Z,3.97
2023-06-13T10:18:42.952Z,4.47
2023-06-13T10:21:15.516Z,4.85
2023-06-13T10:23:47.989Z,4.43
2023-06-13T10:26:22.710Z,4.32
2023-06-13T10:29:10.082Z,4.43
2023-06-13T10:31:58.052Z,4.65
2023-06-13T10:34:56.986Z,4.43
2023-06-13T10:38:02.924Z,4.63
2023-06-13T10:41:01.747Z,4.13
2023-06-13T10:43:36.082Z,4.75
2023-06-13T10:46:08.014Z,4.90
2023-06-13T10:48:39.459Z,4.40
2023-06-13T10:51:12.089Z,4.50
2023-06-13T10:53:40.080Z,4.70
2023-06-13T10:56:10.584Z,4.32
2023-06-13T10:58:38.624Z,4.45
2023-06-13T11:01:30.928Z,5.07
2023-06-13T11:04:10.152Z,4.65
2023-06-13T11:06:41.663Z,5.20
2023-06-13T11:09:20.935Z,4.78
2023-06-13T11:11:51.468Z,4.75
2023-06-13T11:14:22.618Z,4.32
2023-06-13T11:16:50.854Z,4.30
2023-06-13T11:19:22.617Z,4.35
2023-06-13T11:22:08.129Z,4.18
2023-06-13T11:24:37.090Z,4.70
2023-06-13T11:27:06.172Z,4.60
2023-06-13T11:29:35.005Z,4.03
2023-06-13T11:32:05.759Z,4.32
2023-06-13T11:34:44.744Z,4.57
2023-06-13T11:37:24.583Z,4.93
2023-06-13T11:42:28.639Z,5.20
2023-06-13T11:44:58.167Z,4.10
2023-06-13T11:47:26.635Z,5.25
2023-06-13T11:49:58.370Z,4.50
2023-06-13T11:52:27.849Z,4.10
2023-06-13T11:54:55.842Z,4.55
2023-06-13T11:57:24.500Z,4.70
2023-06-13T11:59:59.362Z,4.28
2023-06-13T12:02:28.549Z,4.70
2023-06-13T12:04:56.771Z,4.68
2023-06-13T12:07:24.846Z,4.65
2023-06-13T12:09:54.412Z,4.43
2023-06-13T12:12:22.489Z,4.60
2023-06-13T12:14:55.305Z,4.40
2023-06-13T12:17:24.629Z,4.38
2023-06-13T12:20:08.763Z,4.30
2023-06-13T12:22:36.799Z,4.70
2023-06-13T12:25:07.243Z,4.30
2023-06-13T12:27:37.618Z,4.28
2023-06-13T12:30:14.318Z,4.38
2023-06-13T12:32:45.867Z,4.30
2023-06-13T12:35:13.976Z,4.65
2023-06-13T12:37:42.068Z,4.10
2023-06-13T12:40:13.274Z,4.50
2023-06-13T12:42:43.961Z,4.60
2023-06-13T12:45:13.246Z,4.70
2023-06-13T12:47:47.754Z,4.78
2023-06-13T12:50:16.656Z,4.40
2023-06-13T12:52:44.890Z,4.28
2023-06-13T12:55:16.230Z,4.38
2023-06-13T12:57:44.386Z,4.40
2023-06-13T13:00:13.684Z,4.47
2023-06-13T13:02:41.924Z,4.57
2023-06-13T13:05:10.490Z,4.55
2023-06-13T13:07:38.557Z,4.35
2023-06-13T13:10:07.667Z,4.60
2023-06-13T13:12:37.185Z,4.68
2023-06-13T13:15:05.814Z,4.60
2023-06-13T13:17:34.042Z,4.35
2023-06-13T13:20:02.114Z,5.00
2023-06-13T13:22:30.077Z,4.32
2023-06-13T13:24:58.354Z,3.92
2023-06-13T13:27:26.516Z,4.57
2023-06-13T13:29:58.306Z,4.38
2023-06-13T13:32:28.032Z,4.50
2023-06-13T13:34:56.055Z,4.70
2023-06-13T13:37:24.066Z,4.30
2023-06-13T13:39:52.084Z,4.20
2023-06-13T13:42:26.165Z,4.80
2023-06-13T13:44:56.407Z,4.47
2023-06-13T13:47:24.494Z,4.35
2023-06-13T13:49:52.577Z,4.60
2023-06-13T13:52:20.579Z,4.68
2023-06-13T13:54:48.597Z,4.57
2023-06-13T13:57:16.578Z,4.72
2023-06-13T13:59:45.807Z,4.57
2023-06-13T14:02:15.442Z,4.40
2023-06-13T14:04:43.479Z,4.68
2023-06-13T14:07:11.478Z,4.72
2023-06-13T14:09:39.550Z,4.50
2023-06-13T14:12:09.179Z,4.70
2023-06-13T14:14:39.889Z,4.57
2023-06-13T14:17:08.612Z,4.53
2023-06-13T14:19:37.961Z,4.60
2023-06-13T14:22:08.444Z,4.55
2023-06-13T14:24:37.364Z,5.18
2023-06-13T14:27:07.195Z,4.25
2023-06-13T14:29:36.109Z,4.43
2023-06-13T14:32:05.336Z,4.95
2023-06-13T14:34:33.446Z,4.60
2023-06-13T14:37:02.917Z,4.38
2023-06-13T14:39:32.802Z,4.50
2023-06-13T14:42:01.083Z,4.60
2023-06-13T14:44:29.180Z,4.53
2023-06-13T14:46:57.141Z,4.22
2023-06-13T14:49:25.193Z,4.35
2023-06-13T14:51:56.125Z,4.80
2023-06-13T14:54:25.510Z,4.50
2023-06-13T14:56:53.508Z,4.72
2023-06-13T14:59:21.590Z,5.07
2023-06-13T15:01:49.714Z,4.18
2023-06-13T15:04:17.819Z,4.55
2023-06-13T15:06:45.837Z,4.78
2023-06-13T15:09:13.817Z,4.70
2023-06-13T15:11:44.164Z,4.43
2023-06-13T15:14:15.124Z,4.78
2023-06-13T15:16:45.839Z,4.60
2023-06-13T15:19:13.798Z,4.65
2023-06-13T15:21:44.394Z,4.53
2023-06-13T15:24:12.326Z,4.72
2023-06-13T15:26:41.400Z,4.53
2023-06-13T15:29:11.663Z,4.57
2023-06-13T15:31:39.762Z,4.32
2023-06-13T15:34:09.078Z,4.57
2023-06-13T15:36:37.082Z,4.93
2023-06-13T15:39:07.700Z,4.75
2023-06-13T15:41:38.001Z,4.50
2023-06-13T15:44:06.328Z,4.40
2023-06-13T15:46:38.687Z,4.77
2023-06-13T15:49:06.786Z,4.65
2023-06-13T15:51:34.706Z,4.53
2023-06-13T15:54:02.849Z,4.80
2023-06-13T15:56:31.385Z,4.60
2023-06-13T15:58:59.955Z,4.30
2023-06-13T16:01:29.097Z,4.15
2023-06-13T16:03:58.609Z,4.40
2023-06-13T16:08:57.468Z,4.60
2023-06-13T16:11:28.190Z,4.63
2023-06-13T16:13:56.494Z,4.75
2023-06-13T16:16:24.586Z,4.70
2023-06-13T16:18:52.662Z,4.38
2023-06-13T16:21:22.171Z,5.10
2023-06-13T16:23:50.184Z,4.80
2023-06-13T16:26:18.265Z,4.63
2023-06-13T16:28:46.201Z,4.70
2023-06-13T16:31:14.269Z,4.65
2023-06-13T16:33:42.433Z,4.40
2023-06-13T16:36:10.332Z,4.47
2023-06-13T16:38:39.735Z,4.07
2023-06-13T16:41:10.689Z,4.40
2023-06-13T16:43:41.537Z,4.67
2023-06-13T16:46:09.574Z,4.53
2023-06-13T16:48:37.522Z,4.30
2023-06-13T16:51:05.582Z,4.57
2023-06-13T16:53:33.619Z,4.30
2023-06-13T16:56:03.469Z,4.50
2023-06-13T16:58:31.500Z,4.68
2023-06-13T17:00:59.545Z,4.53
2023-06-13T17:03:27.705Z,4.93
2023-06-13T17:05:55.781Z,4.78
2023-06-13T17:08:24.133Z,4.88
2023-06-13T17:10:52.173Z,4.60
2023-06-13T17:13:21.665Z,4.45
2023-06-13T17:15:49.765Z,4.72
2023-06-13T17:18:18.152Z,4.80
2023-06-13T17:20:51.294Z,4.72
2023-06-13T17:23:19.433Z,4.75
2023-06-13T17:25:47.412Z,4.63
2023-06-13T17:28:15.393Z,4.75
2023-06-13T17:30:44.825Z,4.72
2023-06-13T17:33:12.989Z,4.65
2023-06-13T17:35:41.072Z,4.70
2023-06-13T17:38:12.260Z,4.88
2023-06-13T17:40:40.277Z,4.70
2023-06-13T17:43:08.277Z,4.22
2023-06-13T17:45:36.236Z,4.90
2023-06-13T17:48:06.418Z,4.68
2023-06-13T17:50:35.648Z,4.53
2023-06-13T17:53:04.329Z,4.85
2023-06-13T17:55:34.943Z,4.90
2023-06-13T17:58:02.987Z,4.82
2023-06-13T18:00:30.952Z,4.72
2023-06-13T18:02:59.012Z,5.15
2023-06-13T18:05:28.438Z,4.70
2023-06-13T18:07:56.410Z,5.10
2023-06-13T18:10:25.573Z,5.00
2023-06-13T18:12:53.671Z,4.90
2023-06-13T18:15:22.437Z,5.15
2023-06-13T18:17:52.269Z,4.90
2023-06-13T18:20:20.252Z,4.70
2023-06-13T18:22:49.682Z,4.80
2023-06-13T18:25:18.518Z,4.90
2023-06-13T18:27:50.178Z,4.35
2023-06-13T18:30:18.566Z,4.90
2023-06-13T18:32:46.648Z,4.70
2023-06-13T18:35:15.067Z,4.63
2023-06-13T18:37:43.364Z,4.97
2023-06-13T18:40:13.025Z,4.82
2023-06-13T18:42:41.840Z,4.80
2023-06-13T18:45:12.180Z,4.85
2023-06-13T18:47:40.168Z,4.63
2023-06-13T18:50:09.526Z,4.90
2023-06-13T18:52:38.372Z,4.70
2023-06-13T18:55:07.985Z,4.80
2023-06-13T18:57:37.342Z,5.15
2023-06-13T19:00:07.554Z,4.82
2023-06-13T19:02:35.661Z,4.75
2023-06-13T19:05:06.640Z,4.65
2023-06-13T19:07:34.786Z,4.55
2023-06-13T19:10:02.816Z,5.13
2023-06-13T19:12:30.770Z,4.75
2023-06-13T19:15:00.173Z,5.10
2023-06-13T19:17:29.820Z,5.20
2023-06-13T19:19:58.702Z,4.75
2023-06-13T19:22:26.962Z,4.80
2023-06-13T19:24:55.018Z,5.07
2023-06-13T19:27:23.036Z,4.75
2023-06-13T19:29:51.072Z,5.25
2023-06-13T19:32:20.413Z,4.25
2023-06-13T19:34:48.412Z,4.90
2023-06-13T19:37:16.467Z,4.90
2023-06-13T19:39:44.523Z,4.60
2023-06-13T19:42:12.804Z,4.95
2023-06-13T19:44:41.833Z,5.00
2023-06-13T19:47:10.106Z,4.97
2023-06-13T19:49:39.646Z,4.70
2023-06-13T19:52:10.443Z,5.00
2023-06-13T19:54:38.521Z,4.68
2023-06-13T19:57:09.842Z,4.78
2023-06-13T19:59:40.991Z,4.70
2023-06-13T20:02:09.942Z,4.70
2023-06-13T20:04:44.120Z,4.60
2023-06-13T20:07:12.418Z,4.95
2023-06-13T20:09:40.745Z,5.00
2023-06-13T20:12:10.259Z,4.72
2023-06-13T20:14:38.250Z,4.93
2023-06-13T20:17:07.188Z,5.05
2023-06-13T20:19:40.442Z,4.78
2023-06-13T20:22:09.980Z,4.65
2023-06-13T20:24:38.000Z,4.57
2023-06-13T20:27:06.474Z,5.30
2023-06-13T20:29:34.519Z,5.22
2023-06-13T20:32:02.968Z,4.75
2023-06-13T20:34:31.693Z,4.38
2023-06-13T20:36:59.620Z,5.00
2023-06-13T20:39:29.003Z,4.97
2023-06-13T20:41:57.253Z,4.80
2023-06-13T20:44:29.258Z,5.00
2023-06-13T20:49:31.556Z,4.38
2023-06-13T20:52:03.344Z,4.35
2023-06-13T20:54:33.539Z,4.78
2023-06-13T20:57:01.504Z,4.70
2023-06-13T20:59:30.659Z,4.85
2023-06-13T21:01:58.683Z,4.97
2023-06-13T21:04:27.201Z,4.60
2023-06-13T21:06:55.235Z,4.35
2023-06-13T21:09:26.302Z,4.47
2023-06-13T21:11:56.073Z,4.95
2023-06-13T21:14:24.159Z,4.80
2023-06-13T21:16:52.359Z,4.47
2023-06-13T21:19:20.578Z,4.35
2023-06-13T21:21:48.755Z,4.38
2023-06-13T21:24:16.802Z,4.22
2023-06-13T21:26:44.832Z,4.35
2023-06-13T21:29:14.148Z,4.05
2023-06-13T21:31:42.170Z,4.40
2023-06-13T21:34:10.129Z,4.15
2023-06-13T21:36:38.099Z,4.85
2023-06-13T21:39:12.568Z,4.28
2023-06-13T21:41:40.729Z,4.13
2023-06-13T21:44:11.209Z,4.40
2023-06-13T21:46:40.608Z,4.10
2023-06-13T21:49:08.802Z,4.30
2023-06-13T21:51:39.736Z,4.10
2023-06-13T21:54:07.802Z,4.10
2023-06-13T21:56:36.018Z,4.10
2023-06-13T21:59:04.007Z,4.35
2023-06-13T22:01:32.197Z,3.85
2023-06-13T22:04:01.649Z,4.07
2023-06-13T22:06:29.942Z,4.00
2023-06-13T22:08:57.997Z,4.03
2023-06-13T22:11:26.073Z,4.00
2023-06-13T22:13:54.063Z,4.32
2023-06-13T22:16:23.455Z,4.10
2023-06-13T22:18:51.636Z,4.35
2023-06-13T22:21:21.007Z,4.10
2023-06-13T22:23:49.209Z,3.58
2023-06-13T22:26:17.284Z,4.00
2023-06-13T22:28:45.270Z,4.05
2023-06-13T22:31:13.294Z,4.32
2023-06-13T22:33:44.251Z,4.05
2023-06-13T22:36:12.423Z,3.90
2023-06-13T22:38:45.503Z,3.95
2023-06-13T22:41:13.599Z,4.13
2023-06-13T22:43:41.545Z,3.88
2023-06-13T22:46:09.569Z,3.85
2023-06-13T22:48:37.528Z,3.80
2023-06-13T22:51:06.090Z,4.10
2023-06-13T22:53:34.711Z,4.25
2023-06-13T22:56:05.674Z,3.80
2023-06-13T22:58:33.677Z,3.83
2023-06-13T23:01:01.644Z,3.88
2023-06-13T23:03:29.732Z,3.88
2023-06-13T23:05:57.873Z,4.07
2023-06-13T23:08:26.253Z,3.75
2023-06-13T23:10:55.778Z,3.78
2023-06-13T23:13:25.231Z,3.88
2023-06-13T23:15:54.368Z,3.38
2023-06-13T23:18:22.346Z,3.72
2023-06-13T23:20:50.287Z,3.80
2023-06-13T23:23:18.506Z,3.92
2023-06-13T23:25:47.046Z,4.35
2023-06-13T23:28:17.712Z,3.72
2023-06-13T23:30:47.166Z,3.45
2023-06-13T23:33:15.137Z,3.65
2023-06-13T23:35:43.158Z,3.58
2023-06-13T23:38:16.722Z,3.67
2023-06-13T23:40:44.940Z,3.50
2023-06-13T23:43:12.953Z,3.90
2023-06-13T23:45:41.520Z,3.80
2023-06-13T23:48:11.220Z,3.53
2023-06-13T23:50:39.427Z,3.50
2023-06-13T23:53:10.536Z,3.78
2023-06-13T23:55:42.854Z,3.78
2023-06-13T23:58:11.900Z,3.45
